createdAt,value
2018-03-03T00:00:50.468Z,16.60
2018-03-03T00:01:50.704Z,16.20
2018-03-03T00:02:50.936Z,16.10
2018-03-03T00:03:51.181Z,16.70
2018-03-03T00:04:51.414Z,16.40
2018-03-03T00:05:51.653Z,16.00
2018-03-03T00:06:51.895Z,16.50
2018-03-03T00:07:52.134Z,16.30
2018-03-03T00:08:52.380Z,16.10
2018-03-03T00:09:52.614Z,16.60
2018-03-03T00:10:52.854Z,15.70
2018-03-03T00:11:53.094Z,16.50
2018-03-03T00:12:53.339Z,15.80
2018-03-03T00:13:53.572Z,15.90
2018-03-03T00:14:53.811Z,16.30
2018-03-03T00:15:54.051Z,16.40
2018-03-03T00:16:54.287Z,16.50
2018-03-03T00:17:54.531Z,15.40
2018-03-03T00:18:54.778Z,16.10
2018-03-03T00:19:55.020Z,15.70
2018-03-03T00:20:55.257Z,16.40
2018-03-03T00:21:55.494Z,16.20
2018-03-03T00:22:55.734Z,16.00
2018-03-03T00:23:55.974Z,15.90
2018-03-03T00:24:56.209Z,16.60
2018-03-03T00:25:56.448Z,16.30
2018-03-03T00:26:56.688Z,16.40
2018-03-03T00:28:04.059Z,16.40
2018-03-03T00:29:04.522Z,17.30
2018-03-03T00:30:04.548Z,16.40
2018-03-03T00:31:05.293Z,16.70
2018-03-03T00:32:04.083Z,16.80
2018-03-03T00:32:58.356Z,15.80
2018-03-03T00:34:04.715Z,16.40
2018-03-03T00:34:58.989Z,16.60
2018-03-03T00:35:59.231Z,15.70
2018-03-03T00:36:59.466Z,17.10
2018-03-03T00:37:59.705Z,17.00
2018-03-03T00:38:59.946Z,16.90
2018-03-03T00:40:00.185Z,16.90
2018-03-03T00:41:00.425Z,16.20
2018-03-03T00:42:00.671Z,16.00
2018-03-03T00:43:00.917Z,17.20
2018-03-03T00:44:01.147Z,16.10
2018-03-03T00:45:01.386Z,16.30
2018-03-03T00:46:01.626Z,16.70
2018-03-03T00:47:01.870Z,16.90
2018-03-03T00:48:02.101Z,17.10
2018-03-03T00:49:02.340Z,16.30
2018-03-03T00:50:02.583Z,16.00
2018-03-03T00:51:02.819Z,15.90
2018-03-03T00:52:03.062Z,17.30
2018-03-03T00:53:03.307Z,16.10
2018-03-03T00:54:03.552Z,16.30
2018-03-03T00:55:03.777Z,16.50
2018-03-03T00:56:04.024Z,16.60
2018-03-03T00:57:04.265Z,16.30
2018-03-03T00:58:04.501Z,15.20
2018-03-03T00:59:04.744Z,15.80
2018-03-03T01:00:04.994Z,16.80
2018-03-03T01:01:05.239Z,16.60
2018-03-03T01:02:05.474Z,16.10
2018-03-03T01:03:05.713Z,16.90
2018-03-03T01:04:05.954Z,16.60
2018-03-03T01:05:06.191Z,16.90
2018-03-03T01:06:06.435Z,16.20
2018-03-03T01:07:06.681Z,16.30
2018-03-03T01:08:06.925Z,16.30
2018-03-03T01:09:07.157Z,17.20
2018-03-03T01:10:07.394Z,16.50
2018-03-03T01:11:07.642Z,16.40
2018-03-03T01:12:07.874Z,16.60
2018-03-03T01:13:08.117Z,16.00
2018-03-03T01:14:08.345Z,16.30
2018-03-03T01:15:08.588Z,16.40
2018-03-03T01:16:08.823Z,15.80
2018-03-03T01:17:09.066Z,17.00
2018-03-03T01:18:09.306Z,16.00
2018-03-03T01:19:09.544Z,15.60
2018-03-03T01:20:09.784Z,15.90
2018-03-03T01:21:10.025Z,16.00
2018-03-03T01:22:10.264Z,16.80
2018-03-03T01:23:10.510Z,16.30
2018-03-03T01:24:10.741Z,17.10
2018-03-03T01:25:10.981Z,16.80
2018-03-03T01:26:11.220Z,15.90
2018-03-03T01:27:11.459Z,15.70
2018-03-03T01:28:11.701Z,16.40
2018-03-03T01:29:11.940Z,16.50
2018-03-03T01:30:12.181Z,16.70
2018-03-03T01:31:12.420Z,16.50
2018-03-03T01:32:12.659Z,16.10
2018-03-03T01:33:12.899Z,16.30
2018-03-03T01:34:13.143Z,16.10
2018-03-03T01:35:13.378Z,16.30
2018-03-03T01:36:13.624Z,17.20
2018-03-03T01:37:13.862Z,16.50
2018-03-03T01:38:14.103Z,16.90
2018-03-03T01:39:14.343Z,16.60
2018-03-03T01:40:14.584Z,17.50
2018-03-03T01:41:14.824Z,16.60
2018-03-03T01:42:15.065Z,16.10
2018-03-03T01:43:15.304Z,16.90
2018-03-03T01:44:15.545Z,16.50
2018-03-03T01:45:16.070Z,17.30
2018-03-03T01:46:16.080Z,16.50
2018-03-03T01:47:16.323Z,17.00
2018-03-03T01:48:16.559Z,17.00
2018-03-03T01:49:16.798Z,16.20
2018-03-03T01:50:17.044Z,16.70
2018-03-03T01:51:17.277Z,16.60
2018-03-03T01:52:17.517Z,17.20
2018-03-03T01:53:17.757Z,17.70
2018-03-03T01:54:17.996Z,16.70
2018-03-03T01:55:18.237Z,16.20
2018-03-03T01:56:18.483Z,16.40
2018-03-03T01:57:18.732Z,16.30
2018-03-03T01:58:18.961Z,16.80
2018-03-03T01:59:19.201Z,17.40
2018-03-03T02:00:19.439Z,16.50
2018-03-03T02:01:19.684Z,16.70
2018-03-03T02:02:19.914Z,17.20
2018-03-03T02:03:20.156Z,16.40
2018-03-03T02:04:20.395Z,17.00
2018-03-03T02:05:20.632Z,17.00
2018-03-03T02:06:20.876Z,17.30
2018-03-03T02:07:21.120Z,17.00
2018-03-03T02:08:21.366Z,17.00
2018-03-03T02:09:21.596Z,17.20
2018-03-03T02:10:21.837Z,16.90
2018-03-03T02:11:22.077Z,16.40
2018-03-03T02:12:22.314Z,17.00
2018-03-03T02:13:22.556Z,15.90
2018-03-03T02:14:22.797Z,16.90
2018-03-03T02:15:23.035Z,16.40
2018-03-03T02:16:23.274Z,16.80
2018-03-03T02:17:23.513Z,16.50
2018-03-03T02:18:23.755Z,16.80
2018-03-03T02:19:24.001Z,16.70
2018-03-03T02:20:24.236Z,17.20
2018-03-03T02:21:24.471Z,16.80
2018-03-03T02:22:24.713Z,16.60
2018-03-03T02:23:24.950Z,17.10
2018-03-03T02:24:25.191Z,16.00
2018-03-03T02:25:25.430Z,17.10
2018-03-03T02:26:25.674Z,16.60
2018-03-03T02:27:25.910Z,17.00
2018-03-03T02:28:26.149Z,16.20
2018-03-03T02:29:26.390Z,16.60
2018-03-03T02:30:26.643Z,17.00
2018-03-03T02:31:26.870Z,16.60
2018-03-03T02:32:27.107Z,16.50
2018-03-03T02:33:27.348Z,17.20
2018-03-03T02:34:27.585Z,16.20
2018-03-03T02:35:27.824Z,17.00
2018-03-03T02:36:28.064Z,17.00
2018-03-03T02:37:28.305Z,16.70
2018-03-03T02:38:28.546Z,16.50
2018-03-03T02:39:28.782Z,16.60
2018-03-03T02:40:29.026Z,17.10
2018-03-03T02:41:29.272Z,17.30
2018-03-03T02:42:29.503Z,17.20
2018-03-03T02:43:29.746Z,17.60
2018-03-03T02:44:29.982Z,16.60
2018-03-03T02:45:30.238Z,16.80
2018-03-03T02:46:30.460Z,16.40
2018-03-03T02:47:30.699Z,16.90
2018-03-03T02:48:30.939Z,17.00
2018-03-03T02:49:31.174Z,16.70
2018-03-03T02:50:31.420Z,16.60
2018-03-03T02:51:31.662Z,18.10
2018-03-03T02:52:31.912Z,16.40
2018-03-03T02:53:32.140Z,16.80
2018-03-03T02:54:32.377Z,16.90
2018-03-03T02:55:32.622Z,16.10
2018-03-03T02:56:32.857Z,16.20
2018-03-03T02:57:33.099Z,17.00
2018-03-03T02:58:33.329Z,16.30
2018-03-03T02:59:33.564Z,17.00
2018-03-03T03:00:33.814Z,16.90
2018-03-03T03:01:34.038Z,17.00
2018-03-03T03:02:34.279Z,16.40
2018-03-03T03:03:34.519Z,17.50
2018-03-03T03:04:34.758Z,17.10
2018-03-03T03:05:34.999Z,16.90
2018-03-03T03:06:35.253Z,17.20
2018-03-03T03:07:35.492Z,16.70
2018-03-03T03:08:35.723Z,16.60
2018-03-03T03:09:35.963Z,17.20
2018-03-03T03:10:36.202Z,17.10
2018-03-03T03:11:36.441Z,16.60
2018-03-03T03:12:36.683Z,16.90
2018-03-03T03:13:43.042Z,16.40
2018-03-03T03:14:44.654Z,16.30
2018-03-03T03:15:43.667Z,17.30
2018-03-03T03:16:45.076Z,16.60
2018-03-03T03:17:45.335Z,17.20
2018-03-03T03:18:45.592Z,17.10
2018-03-03T03:19:38.718Z,17.30
2018-03-03T03:20:46.099Z,16.50
2018-03-03T03:21:39.226Z,17.10
2018-03-03T03:22:39.465Z,16.60
2018-03-03T03:23:39.701Z,16.80
2018-03-03T03:24:39.942Z,17.30
2018-03-03T03:25:40.187Z,17.60
2018-03-03T03:26:40.427Z,17.40
2018-03-03T03:27:40.664Z,16.00
2018-03-03T03:28:40.903Z,17.30
2018-03-03T03:29:41.143Z,16.80
2018-03-03T03:30:41.385Z,17.10
2018-03-03T03:31:41.618Z,17.00
2018-03-03T03:32:41.860Z,17.10
2018-03-03T03:33:42.099Z,16.30
2018-03-03T03:34:42.333Z,15.80
2018-03-03T03:35:42.572Z,16.40
2018-03-03T03:36:42.814Z,17.20
2018-03-03T03:37:43.055Z,17.10
2018-03-03T03:38:43.294Z,16.90
2018-03-03T03:39:43.533Z,16.20
2018-03-03T03:40:43.774Z,16.80
2018-03-03T03:41:44.019Z,16.80
2018-03-03T03:42:44.250Z,16.80
2018-03-03T03:43:44.493Z,16.40
2018-03-03T03:44:44.730Z,16.60
2018-03-03T03:45:44.968Z,17.30
2018-03-03T03:46:45.206Z,16.80
2018-03-03T03:47:45.447Z,16.70
2018-03-03T03:48:45.684Z,16.80
2018-03-03T03:49:45.921Z,17.20
2018-03-03T03:50:46.165Z,16.20
2018-03-03T03:51:46.408Z,17.20
2018-03-03T03:52:46.654Z,17.00
2018-03-03T03:53:46.886Z,16.50
2018-03-03T03:54:47.125Z,16.60
2018-03-03T03:55:47.366Z,16.40
2018-03-03T03:56:47.603Z,17.10
2018-03-03T03:57:47.845Z,16.70
2018-03-03T03:58:48.086Z,17.20
2018-03-03T03:59:48.324Z,16.70
2018-03-03T04:00:48.565Z,16.30
2018-03-03T04:01:48.804Z,17.20
2018-03-03T04:02:49.044Z,17.20
2018-03-03T04:03:49.289Z,16.50
2018-03-03T04:04:49.521Z,16.50
2018-03-03T04:05:49.761Z,16.80
2018-03-03T04:06:50.001Z,17.10
2018-03-03T04:07:50.239Z,16.50
2018-03-03T04:08:50.481Z,17.30
2018-03-03T04:09:50.720Z,16.40
2018-03-03T04:10:50.961Z,17.40
2018-03-03T04:11:51.200Z,16.60
2018-03-03T04:12:51.441Z,17.10
2018-03-03T04:13:51.683Z,17.30
2018-03-03T04:14:51.926Z,17.40
2018-03-03T04:15:52.159Z,16.50
2018-03-03T04:16:52.399Z,16.70
2018-03-03T04:17:52.639Z,16.80
2018-03-03T04:18:52.878Z,16.90
2018-03-03T04:19:53.119Z,16.90
2018-03-03T04:20:53.366Z,17.20
2018-03-03T04:21:53.611Z,16.70
2018-03-03T04:22:53.844Z,16.90
2018-03-03T04:23:54.084Z,16.30
2018-03-03T04:24:54.323Z,16.60
2018-03-03T04:25:54.564Z,16.40
2018-03-03T04:26:54.802Z,16.70
2018-03-03T04:27:55.043Z,16.40
2018-03-03T04:28:55.285Z,16.90
2018-03-03T04:29:55.540Z,17.10
2018-03-03T04:30:55.763Z,16.50
2018-03-03T04:31:56.002Z,17.10
2018-03-03T04:32:56.247Z,16.90
2018-03-03T04:33:56.480Z,16.40
2018-03-03T04:34:56.720Z,16.40
2018-03-03T04:35:56.960Z,17.80
2018-03-03T04:36:57.197Z,16.60
2018-03-03T04:37:57.439Z,17.10
2018-03-03T04:38:57.687Z,16.50
2018-03-03T04:39:57.938Z,16.40
2018-03-03T04:40:58.149Z,16.80
2018-03-03T04:41:58.389Z,16.70
2018-03-03T04:42:58.634Z,16.20
2018-03-03T04:43:58.874Z,17.10
2018-03-03T04:44:59.112Z,17.00
2018-03-03T04:45:59.362Z,16.80
2018-03-03T04:46:59.596Z,17.30
2018-03-03T04:47:59.832Z,16.30
2018-03-03T04:49:00.067Z,16.30
2018-03-03T04:50:00.307Z,16.80
2018-03-03T04:51:00.550Z,17.00
2018-03-03T04:52:00.784Z,16.60
2018-03-03T04:53:01.027Z,16.80
2018-03-03T04:54:01.272Z,17.00
2018-03-03T04:55:01.518Z,17.00
2018-03-03T04:56:01.750Z,16.80
2018-03-03T04:57:01.989Z,16.90
2018-03-03T04:58:02.230Z,17.10
2018-03-03T04:59:02.467Z,16.50
2018-03-03T05:00:02.722Z,17.30
2018-03-03T05:01:02.958Z,16.70
2018-03-03T05:02:03.196Z,16.90
2018-03-03T05:03:03.433Z,17.20
2018-03-03T05:04:03.675Z,17.60
2018-03-03T05:05:03.913Z,18.00
2018-03-03T05:06:04.156Z,16.60
2018-03-03T05:07:04.388Z,17.00
2018-03-03T05:08:04.628Z,16.80
2018-03-03T05:09:04.868Z,17.00
2018-03-03T05:10:05.107Z,16.90
2018-03-03T05:11:05.347Z,16.50
2018-03-03T05:12:05.597Z,17.20
2018-03-03T05:13:05.840Z,16.50
2018-03-03T05:14:06.073Z,17.70
2018-03-03T05:15:06.312Z,17.00
2018-03-03T05:16:06.551Z,17.70
2018-03-03T05:17:06.789Z,17.00
2018-03-03T05:18:07.031Z,17.10
2018-03-03T05:19:07.271Z,16.40
2018-03-03T05:20:07.511Z,16.80
2018-03-03T05:21:07.750Z,16.70
2018-03-03T05:22:07.991Z,18.00
2018-03-03T05:23:08.291Z,16.80
2018-03-03T05:24:08.477Z,17.10
2018-03-03T05:25:08.711Z,16.60
2018-03-03T05:26:08.935Z,16.80
2018-03-03T05:27:09.178Z,16.60
2018-03-03T05:28:09.428Z,16.60
2018-03-03T05:29:09.641Z,17.00
2018-03-03T05:30:09.882Z,16.20
2018-03-03T05:31:10.127Z,17.40
2018-03-03T05:32:10.372Z,17.10
2018-03-03T05:33:10.607Z,16.50
2018-03-03T05:34:10.849Z,17.10
2018-03-03T05:35:11.085Z,18.50
2018-03-03T05:36:11.323Z,17.20
2018-03-03T05:37:11.565Z,17.40
2018-03-03T05:38:11.812Z,16.90
2018-03-03T05:39:12.052Z,17.30
2018-03-03T05:40:12.290Z,17.20
2018-03-03T05:41:12.529Z,16.60
2018-03-03T05:42:12.770Z,16.30
2018-03-03T05:43:13.009Z,17.50
2018-03-03T05:44:13.245Z,17.40
2018-03-03T05:45:13.485Z,17.60
2018-03-03T05:46:13.729Z,16.70
2018-03-03T05:47:13.961Z,16.90
2018-03-03T05:48:14.205Z,16.20
2018-03-03T05:49:14.451Z,16.60
2018-03-03T05:50:14.696Z,16.50
2018-03-03T05:51:14.928Z,16.60
2018-03-03T05:52:15.169Z,17.00
2018-03-03T05:53:15.409Z,17.00
2018-03-03T05:54:15.648Z,17.30
2018-03-03T05:55:15.888Z,17.40
2018-03-03T05:56:16.139Z,17.20
2018-03-03T05:57:16.381Z,16.90
2018-03-03T05:58:16.615Z,17.20
2018-03-03T05:59:16.851Z,16.70
2018-03-03T06:00:24.210Z,17.40
2018-03-03T06:01:24.667Z,17.00
2018-03-03T06:02:24.897Z,16.90
2018-03-03T06:03:24.922Z,17.00
2018-03-03T06:04:25.187Z,17.40
2018-03-03T06:05:25.451Z,16.40
2018-03-03T06:06:25.705Z,16.60
2018-03-03T06:07:18.832Z,17.80
2018-03-03T06:08:19.071Z,16.60
2018-03-03T06:09:19.311Z,17.10
2018-03-03T06:10:19.547Z,17.40
2018-03-03T06:11:19.791Z,17.10
2018-03-03T06:12:20.035Z,17.00
2018-03-03T06:13:20.279Z,16.60
2018-03-03T06:14:20.516Z,16.60
2018-03-03T06:15:20.752Z,17.30
2018-03-03T06:16:20.996Z,17.10
2018-03-03T06:17:21.231Z,16.60
2018-03-03T06:18:21.473Z,17.10
2018-03-03T06:19:21.718Z,17.20
2018-03-03T06:20:21.958Z,17.20
2018-03-03T06:21:22.197Z,16.60
2018-03-03T06:22:22.436Z,17.00
2018-03-03T06:23:22.676Z,17.30
2018-03-03T06:24:22.915Z,16.30
2018-03-03T06:25:23.150Z,18.70
2018-03-03T06:26:23.396Z,16.70
2018-03-03T06:27:23.631Z,17.20
2018-03-03T06:28:23.870Z,17.10
2018-03-03T06:29:24.113Z,17.40
2018-03-03T06:30:24.360Z,16.80
2018-03-03T06:31:24.601Z,16.30
2018-03-03T06:32:24.834Z,17.20
2018-03-03T06:33:25.074Z,16.80
2018-03-03T06:34:25.314Z,16.90
2018-03-03T06:35:25.551Z,16.80
2018-03-03T06:36:25.794Z,16.30
2018-03-03T06:37:26.086Z,16.90
2018-03-03T06:38:26.281Z,17.70
2018-03-03T06:39:26.518Z,16.60
2018-03-03T06:40:26.758Z,16.80
2018-03-03T06:41:26.998Z,16.90
2018-03-03T06:42:27.238Z,16.60
2018-03-03T06:43:27.473Z,17.20
2018-03-03T06:44:27.714Z,17.10
2018-03-03T06:45:27.957Z,17.40
2018-03-03T06:46:28.194Z,17.00
2018-03-03T06:47:28.433Z,17.30
2018-03-03T06:48:28.680Z,17.40
2018-03-03T06:49:28.924Z,16.30
2018-03-03T06:50:29.155Z,16.80
2018-03-03T06:51:29.395Z,17.40
2018-03-03T06:52:29.635Z,16.70
2018-03-03T06:53:29.874Z,16.80
2018-03-03T06:54:30.112Z,17.20
2018-03-03T06:55:30.353Z,17.50
2018-03-03T06:56:30.594Z,17.50
2018-03-03T06:57:30.834Z,16.60
2018-03-03T06:58:31.074Z,17.10
2018-03-03T06:59:31.314Z,16.80
2018-03-03T07:00:31.559Z,17.20
2018-03-03T07:01:31.793Z,16.70
2018-03-03T07:02:32.036Z,16.20
2018-03-03T07:03:32.273Z,17.60
2018-03-03T07:04:32.512Z,16.90
2018-03-03T07:05:32.771Z,18.30
2018-03-03T07:06:33.000Z,15.90
2018-03-03T07:07:33.245Z,17.30
2018-03-03T07:08:33.478Z,17.30
2018-03-03T07:09:33.719Z,16.80
2018-03-03T07:10:33.959Z,17.00
2018-03-03T07:11:34.200Z,16.60
2018-03-03T07:12:34.441Z,17.60
2018-03-03T07:13:34.686Z,17.20
2018-03-03T07:14:34.931Z,16.90
2018-03-03T07:15:35.164Z,17.10
2018-03-03T07:16:35.403Z,16.80
2018-03-03T07:17:35.643Z,17.10
2018-03-03T07:18:35.888Z,16.80
2018-03-03T07:19:36.124Z,16.50
2018-03-03T07:20:36.370Z,17.40
2018-03-03T07:21:36.610Z,16.80
2018-03-03T07:22:36.852Z,16.40
2018-03-03T07:23:37.087Z,16.30
2018-03-03T07:24:37.327Z,16.80
2018-03-03T07:25:37.567Z,16.10
2018-03-03T07:26:37.807Z,16.10
2018-03-03T07:27:38.043Z,16.60
2018-03-03T07:28:38.283Z,17.10
2018-03-03T07:29:38.520Z,16.70
2018-03-03T07:30:38.764Z,17.00
2018-03-03T07:31:39.011Z,16.10
2018-03-03T07:32:39.254Z,16.30
2018-03-03T07:33:39.488Z,17.70
2018-03-03T07:34:39.728Z,16.00
2018-03-03T07:35:39.969Z,17.00
2018-03-03T07:36:40.207Z,16.70
2018-03-03T07:37:40.459Z,17.00
2018-03-03T07:38:40.677Z,16.70
2018-03-03T07:39:40.912Z,17.00
2018-03-03T07:40:41.151Z,16.50
2018-03-03T07:41:41.389Z,16.40
2018-03-03T07:42:41.627Z,16.90
2018-03-03T07:43:41.870Z,17.30
2018-03-03T07:44:42.105Z,16.70
2018-03-03T07:45:42.346Z,16.50
2018-03-03T07:46:42.592Z,17.00
2018-03-03T07:47:42.886Z,16.80
2018-03-03T07:48:43.070Z,17.00
2018-03-03T07:49:43.309Z,17.20
2018-03-03T07:50:43.549Z,17.50
2018-03-03T07:51:43.786Z,16.90
2018-03-03T07:52:44.029Z,16.80
2018-03-03T07:53:44.280Z,16.80
2018-03-03T07:54:44.518Z,17.10
2018-03-03T07:55:44.753Z,16.70
2018-03-03T07:56:44.993Z,17.00
2018-03-03T07:57:45.233Z,16.20
2018-03-03T07:58:45.473Z,17.00
2018-03-03T07:59:45.710Z,17.30
2018-03-03T08:00:45.949Z,17.20
2018-03-03T08:01:46.190Z,16.80
2018-03-03T08:02:46.428Z,17.20
2018-03-03T08:03:46.668Z,17.20
2018-03-03T08:04:46.913Z,15.80
2018-03-03T08:05:47.160Z,16.40
2018-03-03T08:06:47.392Z,16.80
2018-03-03T08:07:47.632Z,16.70
2018-03-03T08:08:47.873Z,17.00
2018-03-03T08:09:48.112Z,16.20
2018-03-03T08:10:48.353Z,16.90
2018-03-03T08:11:48.599Z,16.80
2018-03-03T08:12:48.840Z,17.40
2018-03-03T08:13:49.076Z,16.50
2018-03-03T08:14:49.316Z,17.20
2018-03-03T08:15:49.556Z,17.00
2018-03-03T08:16:49.802Z,16.80
2018-03-03T08:17:50.045Z,16.40
2018-03-03T08:18:50.286Z,17.00
2018-03-03T08:19:50.557Z,16.60
2018-03-03T08:20:50.775Z,16.10
2018-03-03T08:21:50.987Z,15.90
2018-03-03T08:22:51.234Z,16.20
2018-03-03T08:23:51.473Z,16.10
2018-03-03T08:24:51.713Z,16.40
2018-03-03T08:25:51.954Z,16.10
2018-03-03T08:26:52.193Z,16.20
2018-03-03T08:27:52.431Z,16.90
2018-03-03T08:28:52.673Z,16.50
2018-03-03T08:29:52.920Z,16.40
2018-03-03T08:30:53.160Z,17.20
2018-03-03T08:31:53.398Z,16.50
2018-03-03T08:32:53.638Z,16.90
2018-03-03T08:33:53.878Z,16.70
2018-03-03T08:34:54.117Z,16.20
2018-03-03T08:35:54.353Z,16.10
2018-03-03T08:36:54.593Z,17.00
2018-03-03T08:37:54.835Z,16.80
2018-03-03T08:38:55.070Z,16.70
2018-03-03T08:39:55.301Z,17.70
2018-03-03T08:40:55.544Z,16.60
2018-03-03T08:41:55.785Z,17.10
2018-03-03T08:42:56.017Z,15.90
2018-03-03T08:43:56.260Z,16.90
2018-03-03T08:44:56.519Z,16.70
2018-03-03T08:46:03.028Z,17.30
2018-03-03T08:47:04.244Z,16.50
2018-03-03T08:48:04.497Z,16.20
2018-03-03T08:49:04.975Z,16.70
2018-03-03T08:50:05.206Z,16.40
2018-03-03T08:51:05.429Z,16.30
2018-03-03T08:52:05.460Z,15.90
2018-03-03T08:53:05.714Z,17.00
2018-03-03T08:53:58.841Z,16.50
2018-03-03T08:54:59.081Z,15.70
2018-03-03T08:55:59.320Z,15.90
2018-03-03T08:56:59.569Z,16.60
2018-03-03T08:57:59.809Z,16.00
2018-03-03T08:59:00.049Z,16.60
2018-03-03T09:00:00.294Z,16.90
2018-03-03T09:01:00.534Z,17.00
2018-03-03T09:02:00.773Z,16.20
2018-03-03T09:03:01.012Z,16.00
2018-03-03T09:04:01.252Z,16.30
2018-03-03T09:05:01.492Z,15.80
2018-03-03T09:06:01.734Z,17.10
2018-03-03T09:07:01.980Z,16.40
2018-03-03T09:08:02.220Z,16.60
2018-03-03T09:09:02.457Z,16.80
2018-03-03T09:10:02.703Z,16.10
2018-03-03T09:11:02.938Z,16.60
2018-03-03T09:12:03.177Z,16.90
2018-03-03T09:13:03.412Z,16.70
2018-03-03T09:14:03.651Z,16.40
2018-03-03T09:15:03.890Z,16.20
2018-03-03T09:16:04.130Z,15.70
2018-03-03T09:17:04.371Z,16.40
2018-03-03T09:18:04.618Z,16.70
2018-03-03T09:19:04.865Z,16.10
2018-03-03T09:20:05.094Z,15.40
2018-03-03T09:21:05.336Z,16.20
2018-03-03T09:22:05.575Z,16.20
2018-03-03T09:23:05.818Z,17.10
2018-03-03T09:24:06.056Z,15.90
2018-03-03T09:25:06.306Z,16.30
2018-03-03T09:26:06.542Z,15.80
2018-03-03T09:27:06.779Z,16.40
2018-03-03T09:28:07.019Z,15.60
2018-03-03T09:29:07.259Z,15.50
2018-03-03T09:30:07.500Z,15.90
2018-03-03T09:31:07.734Z,17.20
2018-03-03T09:32:07.974Z,16.70
2018-03-03T09:33:08.216Z,16.30
2018-03-03T09:34:08.452Z,15.90
2018-03-03T09:35:08.694Z,16.20
2018-03-03T09:36:08.941Z,15.90
2018-03-03T09:37:09.186Z,16.50
2018-03-03T09:38:09.417Z,16.00
2018-03-03T09:39:09.658Z,16.90
2018-03-03T09:40:09.898Z,15.60
2018-03-03T09:41:10.136Z,17.40
2018-03-03T09:42:10.376Z,15.80
2018-03-03T09:43:10.616Z,16.30
2018-03-03T09:44:10.856Z,16.50
2018-03-03T09:45:11.099Z,15.40
2018-03-03T09:46:11.337Z,16.30
2018-03-03T09:47:11.582Z,16.40
2018-03-03T09:48:11.821Z,16.80
2018-03-03T09:49:12.054Z,15.80
2018-03-03T09:50:12.293Z,16.60
2018-03-03T09:51:12.534Z,16.80
2018-03-03T09:52:12.772Z,16.20
2018-03-03T09:53:13.014Z,16.20
2018-03-03T09:54:13.260Z,16.40
2018-03-03T09:55:13.499Z,17.20
2018-03-03T09:56:13.737Z,16.30
2018-03-03T09:57:13.978Z,16.40
2018-03-03T09:58:14.216Z,16.20
2018-03-03T09:59:14.454Z,16.40
2018-03-03T10:00:14.698Z,17.00
2018-03-03T10:01:14.938Z,16.40
2018-03-03T10:02:15.179Z,16.20
2018-03-03T10:03:15.419Z,15.90
2018-03-03T10:04:15.659Z,15.30
2018-03-03T10:05:15.901Z,15.60
2018-03-03T10:06:16.144Z,16.50
2018-03-03T10:07:16.378Z,16.60
2018-03-03T10:08:16.618Z,15.90
2018-03-03T10:09:16.857Z,16.30
2018-03-03T10:10:18.830Z,15.30
2018-03-03T10:11:17.320Z,16.30
2018-03-03T10:12:17.556Z,16.00
2018-03-03T10:13:17.797Z,15.90
2018-03-03T10:14:18.042Z,16.70
2018-03-03T10:15:18.274Z,15.30
2018-03-03T10:16:18.546Z,15.70
2018-03-03T10:17:18.755Z,16.40
2018-03-03T10:18:18.990Z,16.00
2018-03-03T10:19:19.236Z,15.60
2018-03-03T10:20:19.481Z,16.30
2018-03-03T10:21:19.727Z,15.70
2018-03-03T10:22:19.963Z,15.40
2018-03-03T10:23:20.199Z,16.00
2018-03-03T10:24:20.440Z,15.70
2018-03-03T10:25:20.678Z,15.30
2018-03-03T10:26:20.938Z,15.10
2018-03-03T10:27:21.181Z,16.90
2018-03-03T10:28:21.402Z,15.70
2018-03-03T10:29:21.639Z,16.40
2018-03-03T10:30:21.879Z,15.40
2018-03-03T10:31:22.119Z,16.20
2018-03-03T10:32:22.362Z,15.50
2018-03-03T10:33:22.597Z,15.20
2018-03-03T10:34:22.837Z,16.00
2018-03-03T10:35:23.078Z,16.00
2018-03-03T10:36:23.316Z,15.90
2018-03-03T10:37:23.557Z,15.30
2018-03-03T10:38:23.804Z,16.30
2018-03-03T10:39:24.049Z,16.20
2018-03-03T10:40:24.280Z,15.10
2018-03-03T10:41:24.524Z,15.90
2018-03-03T10:42:24.762Z,16.10
2018-03-03T10:43:24.999Z,16.00
2018-03-03T10:44:25.270Z,14.90
2018-03-03T10:45:25.510Z,16.10
2018-03-03T10:46:25.728Z,15.50
2018-03-03T10:47:25.964Z,16.00
2018-03-03T10:48:26.212Z,15.50
2018-03-03T10:49:26.452Z,16.40
2018-03-03T10:50:26.688Z,15.70
2018-03-03T10:51:26.933Z,15.80
2018-03-03T10:52:27.174Z,15.40
2018-03-03T10:53:27.427Z,15.30
2018-03-03T10:54:27.655Z,15.90
2018-03-03T10:55:27.898Z,15.20
2018-03-03T10:56:28.177Z,15.30
2018-03-03T10:57:28.372Z,16.40
2018-03-03T10:58:28.652Z,15.70
2018-03-03T10:59:28.862Z,15.90
2018-03-03T11:00:29.118Z,15.10
2018-03-03T11:01:29.348Z,14.80
2018-03-03T11:02:29.580Z,16.30
2018-03-03T11:03:29.822Z,15.20
2018-03-03T11:04:30.059Z,15.40
2018-03-03T11:05:30.301Z,14.70
2018-03-03T11:06:30.546Z,16.40
2018-03-03T11:07:30.785Z,15.40
2018-03-03T11:08:31.026Z,15.60
2018-03-03T11:09:31.266Z,15.40
2018-03-03T11:10:31.507Z,15.40
2018-03-03T11:11:31.744Z,15.70
2018-03-03T11:12:31.987Z,15.70
2018-03-03T11:13:32.233Z,14.70
2018-03-03T11:14:32.482Z,15.30
2018-03-03T11:15:32.713Z,15.40
2018-03-03T11:16:32.952Z,16.00
2018-03-03T11:17:33.193Z,14.90
2018-03-03T11:18:33.430Z,15.40
2018-03-03T11:19:33.676Z,15.20
2018-03-03T11:20:33.920Z,15.60
2018-03-03T11:21:34.160Z,15.60
2018-03-03T11:22:34.398Z,15.10
2018-03-03T11:23:34.637Z,14.80
2018-03-03T11:24:34.878Z,15.70
2018-03-03T11:25:35.116Z,15.30
2018-03-03T11:26:35.357Z,15.70
2018-03-03T11:27:35.595Z,15.90
2018-03-03T11:28:35.836Z,14.80
2018-03-03T11:29:36.077Z,15.20
2018-03-03T11:30:36.316Z,15.40
2018-03-03T11:31:36.557Z,14.90
2018-03-03T11:32:43.935Z,14.90
2018-03-03T11:33:43.189Z,15.70
2018-03-03T11:34:44.599Z,15.70
2018-03-03T11:35:44.849Z,15.50
2018-03-03T11:36:44.106Z,15.60
2018-03-03T11:37:45.734Z,14.80
2018-03-03T11:38:45.754Z,15.40
2018-03-03T11:39:38.883Z,15.70
2018-03-03T11:40:39.174Z,14.60
2018-03-03T11:41:39.362Z,15.90
2018-03-03T11:42:39.599Z,15.90
2018-03-03T11:43:39.848Z,14.90
2018-03-03T11:44:40.080Z,15.30
2018-03-03T11:45:40.319Z,14.90
2018-03-03T11:46:40.560Z,14.80
2018-03-03T11:47:40.797Z,15.00
2018-03-03T11:48:41.038Z,15.70
2018-03-03T11:49:41.279Z,15.40
2018-03-03T11:50:41.521Z,15.60
2018-03-03T11:51:41.760Z,15.50
2018-03-03T11:52:42.000Z,15.10
2018-03-03T11:53:42.243Z,15.20
2018-03-03T11:54:42.483Z,15.30
2018-03-03T11:55:42.716Z,15.20
2018-03-03T11:56:42.957Z,16.00
2018-03-03T11:57:43.198Z,14.80
2018-03-03T11:58:43.436Z,15.50
2018-03-03T11:59:43.681Z,15.10
2018-03-03T12:00:43.926Z,15.20
2018-03-03T12:01:44.159Z,15.70
2018-03-03T12:02:44.399Z,15.20
2018-03-03T12:03:44.639Z,15.30
2018-03-03T12:04:44.879Z,15.20
2018-03-03T12:05:45.127Z,15.60
2018-03-03T12:06:45.358Z,15.30
2018-03-03T12:07:45.594Z,14.60
2018-03-03T12:08:45.833Z,15.60
2018-03-03T12:09:46.125Z,15.40
2018-03-03T12:10:46.314Z,14.90
2018-03-03T12:11:46.559Z,14.80
2018-03-03T12:12:46.821Z,15.30
2018-03-03T12:13:47.035Z,15.70
2018-03-03T12:14:47.277Z,15.00
2018-03-03T12:15:47.519Z,15.20
2018-03-03T12:16:47.767Z,15.40
2018-03-03T12:17:47.998Z,15.00
2018-03-03T12:18:48.237Z,15.80
2018-03-03T12:19:48.475Z,15.30
2018-03-03T12:20:48.716Z,15.50
2018-03-03T12:21:48.960Z,15.40
2018-03-03T12:22:49.200Z,15.10
2018-03-03T12:23:49.441Z,14.90
2018-03-03T12:24:49.697Z,15.10
2018-03-03T12:25:49.911Z,15.30
2018-03-03T12:26:50.150Z,14.50
2018-03-03T12:27:50.392Z,14.70
2018-03-03T12:28:50.661Z,14.70
2018-03-03T12:29:50.864Z,15.30
2018-03-03T12:30:51.105Z,15.30
2018-03-03T12:31:51.342Z,15.80
2018-03-03T12:32:51.586Z,14.70
2018-03-03T12:33:51.830Z,15.10
2018-03-03T12:34:52.077Z,15.30
2018-03-03T12:35:52.309Z,14.80
2018-03-03T12:36:52.549Z,15.00
2018-03-03T12:37:52.788Z,14.80
2018-03-03T12:38:53.026Z,15.60
2018-03-03T12:39:53.268Z,15.40
2018-03-03T12:40:53.515Z,14.60
2018-03-03T12:41:53.755Z,15.30
2018-03-03T12:42:53.993Z,14.90
2018-03-03T12:43:54.234Z,14.10
2018-03-03T12:44:54.474Z,14.90
2018-03-03T12:45:54.713Z,15.50
2018-03-03T12:46:54.956Z,14.50
2018-03-03T12:47:55.204Z,14.70
2018-03-03T12:48:55.448Z,15.20
2018-03-03T12:49:55.684Z,14.90
2018-03-03T12:50:55.923Z,15.20
2018-03-03T12:51:56.163Z,14.70
2018-03-03T12:52:56.419Z,14.80
2018-03-03T12:53:56.644Z,15.20
2018-03-03T12:54:56.889Z,14.80
2018-03-03T12:55:57.136Z,15.00